sensor_id;sensor_type;location;lat;lon;timestamp;P1;durP1;ratioP1;P2;durP2;ratioP2
31728;SDS011;18309;43.658;1.312;2023-07-13T00:01:26;7.30;;;1.73;;
31728;SDS011;18309;43.658;1.312;2023-07-13T00:03:52;3.33;;;1.40;;
31728;SDS011;18309;43.658;1.312;2023-07-13T00:06:18;4.97;;;1.90;;
31728;SDS011;18309;43.658;1.312;2023-07-13T00:08:45;4.68;;;1.90;;
31728;SDS011;18309;43.658;1.312;2023-07-13T00:11:12;4.47;;;1.58;;
31728;SDS011;18309;43.658;1.312;2023-07-13T00:13:39;9.55;;;2.03;;
31728;SDS011;18309;43.658;1.312;2023-07-13T00:16:06;4.57;;;1.67;;
31728;SDS011;18309;43.658;1.312;2023-07-13T00:18:32;6.68;;;2.15;;
31728;SDS011;18309;43.658;1.312;2023-07-13T00:20:58;4.13;;;1.42;;
31728;SDS011;18309;43.658;1.312;2023-07-13T00:23:37;5.50;;;1.85;;
31728;SDS011;18309;43.658;1.312;2023-07-13T00:26:05;4.65;;;1.80;;
31728;SDS011;18309;43.658;1.312;2023-07-13T00:28:32;4.57;;;1.58;;
31728;SDS011;18309;43.658;1.312;2023-07-13T00:30:59;2.88;;;1.40;;
31728;SDS011;18309;43.658;1.312;2023-07-13T00:33:25;7.63;;;1.95;;
31728;SDS011;18309;43.658;1.312;2023-07-13T00:35:53;5.60;;;1.63;;
31728;SDS011;18309;43.658;1.312;2023-07-13T00:38:20;6.10;;;1.70;;
31728;SDS011;18309;43.658;1.312;2023-07-13T00:40:46;3.10;;;1.30;;
31728;SDS011;18309;43.658;1.312;2023-07-13T00:43:13;2.83;;;1.30;;
31728;SDS011;18309;43.658;1.312;2023-07-13T00:48:10;5.43;;;1.80;;
31728;SDS011;18309;43.658;1.312;2023-07-13T00:50:39;3.05;;;1.52;;
31728;SDS011;18309;43.658;1.312;2023-07-13T00:53:06;3.75;;;1.50;;
31728;SDS011;18309;43.658;1.312;2023-07-13T00:55:33;4.50;;;1.55;;
31728;SDS011;18309;43.658;1.312;2023-07-13T00:58:00;3.72;;;1.35;;
31728;SDS011;18309;43.658;1.312;2023-07-13T01:00:27;5.57;;;1.48;;
31728;SDS011;18309;43.658;1.312;2023-07-13T01:02:55;7.50;;;1.67;;
31728;SDS011;18309;43.658;1.312;2023-07-13T01:05:21;7.10;;;1.42;;
31728;SDS011;18309;43.658;1.312;2023-07-13T01:07:48;5.38;;;1.65;;
31728;SDS011;18309;43.658;1.312;2023-07-13T01:10:15;5.68;;;1.48;;
31728;SDS011;18309;43.658;1.312;2023-07-13T01:12:41;4.93;;;1.30;;
31728;SDS011;18309;43.658;1.312;2023-07-13T01:18:12;6.22;;;1.70;;
31728;SDS011;18309;43.658;1.312;2023-07-13T01:21:01;4.30;;;1.48;;
31728;SDS011;18309;43.658;1.312;2023-07-13T01:23:29;15.32;;;1.42;;
31728;SDS011;18309;43.658;1.312;2023-07-13T01:25:56;5.43;;;1.50;;
31728;SDS011;18309;43.658;1.312;2023-07-13T01:28:23;7.90;;;1.52;;
31728;SDS011;18309;43.658;1.312;2023-07-13T01:30:52;5.10;;;1.38;;
31728;SDS011;18309;43.658;1.312;2023-07-13T01:33:19;8.15;;;1.50;;
31728;SDS011;18309;43.658;1.312;2023-07-13T01:35:45;3.15;;;1.08;;
31728;SDS011;18309;43.658;1.312;2023-07-13T01:38:13;5.82;;;1.20;;
31728;SDS011;18309;43.658;1.312;2023-07-13T01:40:40;4.60;;;1.55;;
31728;SDS011;18309;43.658;1.312;2023-07-13T01:43:06;8.85;;;1.42;;
31728;SDS011;18309;43.658;1.312;2023-07-13T01:45:33;7.22;;;1.33;;
31728;SDS011;18309;43.658;1.312;2023-07-13T01:47:59;7.95;;;1.40;;
31728;SDS011;18309;43.658;1.312;2023-07-13T01:50:25;6.32;;;1.48;;
31728;SDS011;18309;43.658;1.312;2023-07-13T01:52:51;8.65;;;1.60;;
31728;SDS011;18309;43.658;1.312;2023-07-13T01:55:17;5.53;;;1.00;;
31728;SDS011;18309;43.658;1.312;2023-07-13T01:57:42;8.88;;;1.83;;
31728;SDS011;18309;43.658;1.312;2023-07-13T02:00:09;7.97;;;1.52;;
31728;SDS011;18309;43.658;1.312;2023-07-13T02:02:36;20.25;;;1.65;;
31728;SDS011;18309;43.658;1.312;2023-07-13T02:05:02;9.07;;;1.83;;
31728;SDS011;18309;43.658;1.312;2023-07-13T02:07:27;7.00;;;1.30;;
31728;SDS011;18309;43.658;1.312;2023-07-13T02:09:53;10.70;;;1.80;;
31728;SDS011;18309;43.658;1.312;2023-07-13T02:12:19;7.55;;;1.73;;
31728;SDS011;18309;43.658;1.312;2023-07-13T02:14:44;6.85;;;1.42;;
31728;SDS011;18309;43.658;1.312;2023-07-13T02:17:10;4.30;;;1.23;;
31728;SDS011;18309;43.658;1.312;2023-07-13T02:19:36;5.50;;;1.50;;
31728;SDS011;18309;43.658;1.312;2023-07-13T02:22:02;6.82;;;1.67;;
31728;SDS011;18309;43.658;1.312;2023-07-13T02:24:28;7.78;;;1.17;;
31728;SDS011;18309;43.658;1.312;2023-07-13T02:26:53;7.72;;;1.20;;
31728;SDS011;18309;43.658;1.312;2023-07-13T02:29:19;7.20;;;1.25;;
31728;SDS011;18309;43.658;1.312;2023-07-13T02:31:45;11.70;;;1.40;;
31728;SDS011;18309;43.658;1.312;2023-07-13T02:34:11;4.30;;;1.20;;
31728;SDS011;18309;43.658;1.312;2023-07-13T02:36:36;10.55;;;1.52;;
31728;SDS011;18309;43.658;1.312;2023-07-13T02:39:03;13.90;;;1.95;;
31728;SDS011;18309;43.658;1.312;2023-07-13T02:41:30;6.75;;;1.55;;
31728;SDS011;18309;43.658;1.312;2023-07-13T02:43:57;6.20;;;1.30;;
31728;SDS011;18309;43.658;1.312;2023-07-13T02:46:28;5.38;;;1.15;;
31728;SDS011;18309;43.658;1.312;2023-07-13T02:49:01;6.80;;;1.30;;
31728;SDS011;18309;43.658;1.312;2023-07-13T02:51:27;6.72;;;1.25;;
31728;SDS011;18309;43.658;1.312;2023-07-13T02:53:53;6.85;;;1.40;;
31728;SDS011;18309;43.658;1.312;2023-07-13T02:56:23;4.50;;;1.17;;
31728;SDS011;18309;43.658;1.312;2023-07-13T02:58:50;8.88;;;1.48;;
31728;SDS011;18309;43.658;1.312;2023-07-13T03:01:16;7.47;;;1.65;;
31728;SDS011;18309;43.658;1.312;2023-07-13T03:03:46;6.25;;;1.17;;
31728;SDS011;18309;43.658;1.312;2023-07-13T03:06:12;4.95;;;1.35;;
31728;SDS011;18309;43.658;1.312;2023-07-13T03:08:38;12.65;;;2.08;;
31728;SDS011;18309;43.658;1.312;2023-07-13T03:11:09;5.53;;;1.25;;
31728;SDS011;18309;43.658;1.312;2023-07-13T03:13:37;9.27;;;1.50;;
31728;SDS011;18309;43.658;1.312;2023-07-13T03:16:04;12.88;;;1.85;;
31728;SDS011;18309;43.658;1.312;2023-07-13T03:18:31;11.27;;;1.95;;
31728;SDS011;18309;43.658;1.312;2023-07-13T03:20:57;6.85;;;1.52;;
31728;SDS011;18309;43.658;1.312;2023-07-13T03:23:22;4.20;;;1.60;;
31728;SDS011;18309;43.658;1.312;2023-07-13T03:25:49;7.03;;;1.00;;
31728;SDS011;18309;43.658;1.312;2023-07-13T03:28:15;10.85;;;2.22;;
31728;SDS011;18309;43.658;1.312;2023-07-13T03:30:41;11.82;;;1.60;;
31728;SDS011;18309;43.658;1.312;2023-07-13T03:33:07;9.63;;;1.83;;
31728;SDS011;18309;43.658;1.312;2023-07-13T03:35:33;11.35;;;1.90;;
31728;SDS011;18309;43.658;1.312;2023-07-13T03:38:00;9.13;;;1.17;;
31728;SDS011;18309;43.658;1.312;2023-07-13T03:40:27;7.80;;;1.45;;
31728;SDS011;18309;43.658;1.312;2023-07-13T03:42:53;6.70;;;1.75;;
31728;SDS011;18309;43.658;1.312;2023-07-13T03:45:19;6.63;;;1.30;;
31728;SDS011;18309;43.658;1.312;2023-07-13T03:47:45;8.82;;;1.33;;
31728;SDS011;18309;43.658;1.312;2023-07-13T03:50:11;5.40;;;1.15;;
31728;SDS011;18309;43.658;1.312;2023-07-13T03:52:37;11.68;;;1.50;;
31728;SDS011;18309;43.658;1.312;2023-07-13T03:55:03;8.07;;;1.35;;
31728;SDS011;18309;43.658;1.312;2023-07-13T03:57:28;8.38;;;2.13;;
31728;SDS011;18309;43.658;1.312;2023-07-13T03:59:54;6.38;;;1.25;;
31728;SDS011;18309;43.658;1.312;2023-07-13T04:02:20;11.32;;;1.23;;
31728;SDS011;18309;43.658;1.312;2023-07-13T04:04:46;8.95;;;1.33;;
31728;SDS011;18309;43.658;1.312;2023-07-13T04:07:11;5.57;;;1.50;;
31728;SDS011;18309;43.658;1.312;2023-07-13T04:09:37;5.82;;;0.98;;
31728;SDS011;18309;43.658;1.312;2023-07-13T04:12:03;5.53;;;1.52;;
31728;SDS011;18309;43.658;1.312;2023-07-13T04:14:29;4.10;;;1.20;;
31728;SDS011;18309;43.658;1.312;2023-07-13T04:16:55;6.82;;;1.23;;
31728;SDS011;18309;43.658;1.312;2023-07-13T04:19:21;5.22;;;0.95;;
31728;SDS011;18309;43.658;1.312;2023-07-13T04:21:46;9.75;;;1.40;;
31728;SDS011;18309;43.658;1.312;2023-07-13T04:24:12;9.82;;;2.05;;
31728;SDS011;18309;43.658;1.312;2023-07-13T04:26:38;14.30;;;1.55;;
31728;SDS011;18309;43.658;1.312;2023-07-13T04:29:05;10.75;;;1.40;;
31728;SDS011;18309;43.658;1.312;2023-07-13T04:31:31;8.32;;;1.85;;
31728;SDS011;18309;43.658;1.312;2023-07-13T04:33:57;8.32;;;1.35;;
31728;SDS011;18309;43.658;1.312;2023-07-13T04:36:22;7.00;;;1.50;;
31728;SDS011;18309;43.658;1.312;2023-07-13T04:38:50;11.45;;;1.40;;
31728;SDS011;18309;43.658;1.312;2023-07-13T04:41:16;5.35;;;1.20;;
31728;SDS011;18309;43.658;1.312;2023-07-13T04:43:42;6.43;;;1.10;;
31728;SDS011;18309;43.658;1.312;2023-07-13T04:46:11;10.45;;;1.30;;
31728;SDS011;18309;43.658;1.312;2023-07-13T04:48:39;10.82;;;1.20;;
31728;SDS011;18309;43.658;1.312;2023-07-13T04:51:05;7.78;;;1.75;;
31728;SDS011;18309;43.658;1.312;2023-07-13T04:53:31;5.20;;;1.30;;
31728;SDS011;18309;43.658;1.312;2023-07-13T04:55:59;12.15;;;1.52;;
31728;SDS011;18309;43.658;1.312;2023-07-13T04:58:25;7.47;;;1.23;;
31728;SDS011;18309;43.658;1.312;2023-07-13T05:00:52;8.65;;;1.35;;
31728;SDS011;18309;43.658;1.312;2023-07-13T05:03:18;12.48;;;1.58;;
31728;SDS011;18309;43.658;1.312;2023-07-13T05:05:54;5.45;;;1.58;;
31728;SDS011;18309;43.658;1.312;2023-07-13T05:08:23;6.85;;;1.20;;
31728;SDS011;18309;43.658;1.312;2023-07-13T05:10:49;10.55;;;1.35;;
31728;SDS011;18309;43.658;1.312;2023-07-13T05:13:16;7.07;;;1.20;;
31728;SDS011;18309;43.658;1.312;2023-07-13T05:15:41;6.10;;;1.42;;
31728;SDS011;18309;43.658;1.312;2023-07-13T05:18:07;6.00;;;1.10;;
31728;SDS011;18309;43.658;1.312;2023-07-13T05:20:33;5.35;;;1.23;;
31728;SDS011;18309;43.658;1.312;2023-07-13T05:22:58;7.38;;;1.25;;
31728;SDS011;18309;43.658;1.312;2023-07-13T05:25:24;11.70;;;1.40;;
31728;SDS011;18309;43.658;1.312;2023-07-13T05:27:50;4.25;;;0.95;;
31728;SDS011;18309;43.658;1.312;2023-07-13T05:30:15;9.25;;;1.00;;
31728;SDS011;18309;43.658;1.312;2023-07-13T05:32:41;6.30;;;1.30;;
31728;SDS011;18309;43.658;1.312;2023-07-13T05:35:07;5.88;;;1.50;;
31728;SDS011;18309;43.658;1.312;2023-07-13T05:37:33;6.47;;;1.27;;
31728;SDS011;18309;43.658;1.312;2023-07-13T05:39:59;7.68;;;1.23;;
31728;SDS011;18309;43.658;1.312;2023-07-13T05:42:25;7.38;;;1.40;;
31728;SDS011;18309;43.658;1.312;2023-07-13T05:44:51;9.30;;;1.50;;
31728;SDS011;18309;43.658;1.312;2023-07-13T05:47:16;3.20;;;0.82;;
31728;SDS011;18309;43.658;1.312;2023-07-13T05:49:42;10.55;;;1.33;;
31728;SDS011;18309;43.658;1.312;2023-07-13T05:52:08;10.93;;;1.30;;
31728;SDS011;18309;43.658;1.312;2023-07-13T05:54:33;3.72;;;0.68;;
31728;SDS011;18309;43.658;1.312;2023-07-13T05:57:00;6.50;;;1.15;;
31728;SDS011;18309;43.658;1.312;2023-07-13T05:59:26;9.65;;;1.08;;
31728;SDS011;18309;43.658;1.312;2023-07-13T06:01:51;6.15;;;1.23;;
31728;SDS011;18309;43.658;1.312;2023-07-13T06:04:18;7.55;;;1.15;;
31728;SDS011;18309;43.658;1.312;2023-07-13T06:06:45;6.15;;;1.08;;
31728;SDS011;18309;43.658;1.312;2023-07-13T06:09:10;7.22;;;1.10;;
31728;SDS011;18309;43.658;1.312;2023-07-13T06:11:36;7.50;;;0.80;;
31728;SDS011;18309;43.658;1.312;2023-07-13T06:14:02;4.03;;;1.02;;
31728;SDS011;18309;43.658;1.312;2023-07-13T06:16:29;7.07;;;1.23;;
31728;SDS011;18309;43.658;1.312;2023-07-13T06:18:54;3.70;;;1.05;;
31728;SDS011;18309;43.658;1.312;2023-07-13T06:21:21;5.82;;;1.00;;
31728;SDS011;18309;43.658;1.312;2023-07-13T06:23:48;4.55;;;0.98;;
31728;SDS011;18309;43.658;1.312;2023-07-13T06:26:15;7.03;;;1.08;;
31728;SDS011;18309;43.658;1.312;2023-07-13T06:28:45;4.47;;;0.98;;
31728;SDS011;18309;43.658;1.312;2023-07-13T06:31:11;7.07;;;1.17;;
31728;SDS011;18309;43.658;1.312;2023-07-13T06:33:38;9.10;;;1.13;;
31728;SDS011;18309;43.658;1.312;2023-07-13T06:36:05;4.10;;;0.77;;
31728;SDS011;18309;43.658;1.312;2023-07-13T06:38:32;4.35;;;1.13;;
31728;SDS011;18309;43.658;1.312;2023-07-13T06:40:58;6.22;;;0.88;;
31728;SDS011;18309;43.658;1.312;2023-07-13T06:43:24;7.65;;;1.20;;
31728;SDS011;18309;43.658;1.312;2023-07-13T06:45:50;9.90;;;1.17;;
31728;SDS011;18309;43.658;1.312;2023-07-13T06:48:17;7.43;;;1.15;;
31728;SDS011;18309;43.658;1.312;2023-07-13T06:50:44;11.18;;;1.08;;
31728;SDS011;18309;43.658;1.312;2023-07-13T06:53:11;4.72;;;0.60;;
31728;SDS011;18309;43.658;1.312;2023-07-13T06:55:37;3.33;;;0.60;;
31728;SDS011;18309;43.658;1.312;2023-07-13T06:58:03;2.38;;;0.80;;
31728;SDS011;18309;43.658;1.312;2023-07-13T07:00:30;6.85;;;1.20;;
31728;SDS011;18309;43.658;1.312;2023-07-13T07:02:56;11.05;;;1.70;;
31728;SDS011;18309;43.658;1.312;2023-07-13T07:05:21;8.50;;;0.80;;
31728;SDS011;18309;43.658;1.312;2023-07-13T07:07:50;7.60;;;1.00;;
31728;SDS011;18309;43.658;1.312;2023-07-13T07:10:17;8.30;;;0.93;;
31728;SDS011;18309;43.658;1.312;2023-07-13T07:12:44;6.07;;;0.70;;
31728;SDS011;18309;43.658;1.312;2023-07-13T07:15:10;7.00;;;0.98;;
31728;SDS011;18309;43.658;1.312;2023-07-13T07:17:36;5.25;;;0.90;;
31728;SDS011;18309;43.658;1.312;2023-07-13T07:20:02;5.75;;;1.33;;
31728;SDS011;18309;43.658;1.312;2023-07-13T07:22:28;2.08;;;0.63;;
31728;SDS011;18309;43.658;1.312;2023-07-13T07:24:55;8.15;;;1.08;;
31728;SDS011;18309;43.658;1.312;2023-07-13T07:27:21;6.18;;;1.00;;
31728;SDS011;18309;43.658;1.312;2023-07-13T07:29:47;7.30;;;0.93;;
31728;SDS011;18309;43.658;1.312;2023-07-13T07:32:12;6.72;;;1.17;;
31728;SDS011;18309;43.658;1.312;2023-07-13T07:34:38;5.53;;;0.73;;
31728;SDS011;18309;43.658;1.312;2023-07-13T07:37:04;6.05;;;1.17;;
31728;SDS011;18309;43.658;1.312;2023-07-13T07:39:30;6.93;;;1.02;;
31728;SDS011;18309;43.658;1.312;2023-07-13T07:41:56;7.07;;;1.23;;
31728;SDS011;18309;43.658;1.312;2023-07-13T07:44:22;9.50;;;1.05;;
31728;SDS011;18309;43.658;1.312;2023-07-13T07:46:48;7.50;;;1.05;;
31728;SDS011;18309;43.658;1.312;2023-07-13T07:49:14;9.50;;;1.10;;
31728;SDS011;18309;43.658;1.312;2023-07-13T07:51:40;2.53;;;0.73;;
31728;SDS011;18309;43.658;1.312;2023-07-13T07:54:06;11.38;;;1.20;;
31728;SDS011;18309;43.658;1.312;2023-07-13T07:56:32;6.35;;;1.27;;
31728;SDS011;18309;43.658;1.312;2023-07-13T07:58:58;11.30;;;0.90;;
31728;SDS011;18309;43.658;1.312;2023-07-13T08:01:24;5.22;;;0.80;;
31728;SDS011;18309;43.658;1.312;2023-07-13T08:03:49;6.10;;;0.68;;
31728;SDS011;18309;43.658;1.312;2023-07-13T08:06:15;3.17;;;0.82;;
31728;SDS011;18309;43.658;1.312;2023-07-13T08:08:41;7.15;;;1.00;;
31728;SDS011;18309;43.658;1.312;2023-07-13T08:11:07;3.65;;;0.52;;
31728;SDS011;18309;43.658;1.312;2023-07-13T08:13:34;7.25;;;1.15;;
31728;SDS011;18309;43.658;1.312;2023-07-13T08:16:00;7.93;;;1.00;;
31728;SDS011;18309;43.658;1.312;2023-07-13T08:18:26;6.15;;;0.70;;
31728;SDS011;18309;43.658;1.312;2023-07-13T08:20:53;5.53;;;0.73;;
31728;SDS011;18309;43.658;1.312;2023-07-13T08:23:21;5.15;;;0.65;;
31728;SDS011;18309;43.658;1.312;2023-07-13T08:25:51;6.63;;;0.88;;
31728;SDS011;18309;43.658;1.312;2023-07-13T08:28:17;4.68;;;0.75;;
31728;SDS011;18309;43.658;1.312;2023-07-13T08:30:43;6.18;;;0.77;;
31728;SDS011;18309;43.658;1.312;2023-07-13T08:33:09;7.30;;;0.80;;
31728;SDS011;18309;43.658;1.312;2023-07-13T08:35:35;6.15;;;0.68;;
31728;SDS011;18309;43.658;1.312;2023-07-13T08:38:00;3.45;;;0.70;;
31728;SDS011;18309;43.658;1.312;2023-07-13T08:40:27;2.75;;;0.75;;
31728;SDS011;18309;43.658;1.312;2023-07-13T08:42:53;4.72;;;0.70;;
31728;SDS011;18309;43.658;1.312;2023-07-13T08:53:18;4.88;;;1.35;;
31728;SDS011;18309;43.658;1.312;2023-07-13T08:55:44;4.95;;;0.60;;
31728;SDS011;18309;43.658;1.312;2023-07-13T09:06:28;7.50;;;1.23;;
31728;SDS011;18309;43.658;1.312;2023-07-13T09:09:06;4.53;;;0.80;;
31728;SDS011;18309;43.658;1.312;2023-07-13T09:17:29;12.10;;;1.02;;
31728;SDS011;18309;43.658;1.312;2023-07-13T09:20:04;3.92;;;0.85;;
31728;SDS011;18309;43.658;1.312;2023-07-13T09:22:50;2.47;;;0.50;;
31728;SDS011;18309;43.658;1.312;2023-07-13T09:25:29;3.40;;;0.70;;
31728;SDS011;18309;43.658;1.312;2023-07-13T09:28:02;8.82;;;1.00;;
31728;SDS011;18309;43.658;1.312;2023-07-13T09:33:18;12.15;;;1.20;;
31728;SDS011;18309;43.658;1.312;2023-07-13T09:35:44;4.47;;;0.80;;
31728;SDS011;18309;43.658;1.312;2023-07-13T09:38:11;17.52;;;1.05;;
31728;SDS011;18309;43.658;1.312;2023-07-13T09:43:14;7.47;;;1.10;;
31728;SDS011;18309;43.658;1.312;2023-07-13T09:45:41;4.75;;;0.88;;
31728;SDS011;18309;43.658;1.312;2023-07-13T09:48:12;7.93;;;0.80;;
31728;SDS011;18309;43.658;1.312;2023-07-13T09:50:39;7.75;;;1.00;;
31728;SDS011;18309;43.658;1.312;2023-07-13T09:53:16;5.93;;;1.13;;
31728;SDS011;18309;43.658;1.312;2023-07-13T09:55:44;6.20;;;0.70;;
31728;SDS011;18309;43.658;1.312;2023-07-13T09:58:13;3.28;;;0.68;;
31728;SDS011;18309;43.658;1.312;2023-07-13T10:00:56;10.75;;;1.20;;
31728;SDS011;18309;43.658;1.312;2023-07-13T10:03:27;5.90;;;1.20;;
31728;SDS011;18309;43.658;1.312;2023-07-13T10:06:01;5.13;;;1.08;;
31728;SDS011;18309;43.658;1.312;2023-07-13T10:08:36;3.03;;;0.98;;
31728;SDS011;18309;43.658;1.312;2023-07-13T10:11:20;11.25;;;1.27;;
31728;SDS011;18309;43.658;1.312;2023-07-13T10:13:59;4.35;;;0.88;;
31728;SDS011;18309;43.658;1.312;2023-07-13T10:16:31;4.78;;;1.05;;
31728;SDS011;18309;43.658;1.312;2023-07-13T10:18:58;4.38;;;0.80;;
31728;SDS011;18309;43.658;1.312;2023-07-13T10:21:36;5.15;;;1.15;;
31728;SDS011;18309;43.658;1.312;2023-07-13T10:26:33;5.93;;;1.20;;
31728;SDS011;18309;43.658;1.312;2023-07-13T10:29:04;8.25;;;1.15;;
31728;SDS011;18309;43.658;1.312;2023-07-13T10:31:34;5.38;;;1.00;;
31728;SDS011;18309;43.658;1.312;2023-07-13T10:34:03;4.15;;;0.82;;
31728;SDS011;18309;43.658;1.312;2023-07-13T10:36:33;7.03;;;0.85;;
31728;SDS011;18309;43.658;1.312;2023-07-13T10:39:04;6.18;;;1.08;;
31728;SDS011;18309;43.658;1.312;2023-07-13T10:41:32;3.92;;;0.98;;
31728;SDS011;18309;43.658;1.312;2023-07-13T10:44:01;6.00;;;1.17;;
31728;SDS011;18309;43.658;1.312;2023-07-13T10:46:29;7.40;;;0.90;;
31728;SDS011;18309;43.658;1.312;2023-07-13T10:48:59;6.38;;;0.88;;
31728;SDS011;18309;43.658;1.312;2023-07-13T10:51:29;5.13;;;1.10;;
31728;SDS011;18309;43.658;1.312;2023-07-13T10:56:41;2.17;;;0.52;;
31728;SDS011;18309;43.658;1.312;2023-07-13T11:04:15;6.97;;;0.80;;
31728;SDS011;18309;43.658;1.312;2023-07-13T11:06:43;3.47;;;0.77;;
31728;SDS011;18309;43.658;1.312;2023-07-13T11:09:57;4.13;;;0.90;;
31728;SDS011;18309;43.658;1.312;2023-07-13T11:20:39;12.73;;;1.58;;
31728;SDS011;18309;43.658;1.312;2023-07-13T11:25:35;4.10;;;1.00;;
31728;SDS011;18309;43.658;1.312;2023-07-13T11:36:22;4.63;;;1.17;;
31728;SDS011;18309;43.658;1.312;2023-07-13T11:38:36;4.35;;;1.15;;
31728;SDS011;18309;43.658;1.312;2023-07-13T11:41:10;6.07;;;0.80;;
31728;SDS011;18309;43.658;1.312;2023-07-13T11:43:41;3.53;;;1.00;;
31728;SDS011;18309;43.658;1.312;2023-07-13T11:46:19;6.63;;;1.02;;
31728;SDS011;18309;43.658;1.312;2023-07-13T11:48:45;6.63;;;1.20;;
31728;SDS011;18309;43.658;1.312;2023-07-13T11:51:18;4.05;;;0.77;;
31728;SDS011;18309;43.658;1.312;2023-07-13T11:53:51;5.05;;;1.00;;
31728;SDS011;18309;43.658;1.312;2023-07-13T11:56:18;3.20;;;0.65;;
31728;SDS011;18309;43.658;1.312;2023-07-13T11:58:47;4.78;;;0.80;;
31728;SDS011;18309;43.658;1.312;2023-07-13T12:01:22;2.25;;;0.60;;
31728;SDS011;18309;43.658;1.312;2023-07-13T12:03:57;9.80;;;1.42;;
31728;SDS011;18309;43.658;1.312;2023-07-13T12:08:55;5.05;;;1.13;;
31728;SDS011;18309;43.658;1.312;2023-07-13T12:11:26;6.32;;;1.20;;
31728;SDS011;18309;43.658;1.312;2023-07-13T12:13:52;6.05;;;1.13;;
31728;SDS011;18309;43.658;1.312;2023-07-13T12:16:30;4.05;;;1.40;;
31728;SDS011;18309;43.658;1.312;2023-07-13T12:18:58;5.53;;;0.93;;
31728;SDS011;18309;43.658;1.312;2023-07-13T12:21:29;4.38;;;0.93;;
31728;SDS011;18309;43.658;1.312;2023-07-13T12:24:02;3.42;;;0.95;;
31728;SDS011;18309;43.658;1.312;2023-07-13T12:26:29;5.15;;;1.00;;
31728;SDS011;18309;43.658;1.312;2023-07-13T12:28:57;6.22;;;0.88;;
31728;SDS011;18309;43.658;1.312;2023-07-13T12:34:17;3.95;;;0.80;;
31728;SDS011;18309;43.658;1.312;2023-07-13T12:36:48;8.77;;;0.95;;
31728;SDS011;18309;43.658;1.312;2023-07-13T12:39:15;6.40;;;0.80;;
31728;SDS011;18309;43.658;1.312;2023-07-13T12:41:44;3.00;;;0.67;;
31728;SDS011;18309;43.658;1.312;2023-07-13T12:44:17;2.67;;;0.70;;
31728;SDS011;18309;43.658;1.312;2023-07-13T12:46:52;6.00;;;0.90;;
31728;SDS011;18309;43.658;1.312;2023-07-13T12:49:22;5.57;;;1.25;;
31728;SDS011;18309;43.658;1.312;2023-07-13T12:51:50;3.58;;;0.80;;
31728;SDS011;18309;43.658;1.312;2023-07-13T12:54:20;3.67;;;0.90;;
31728;SDS011;18309;43.658;1.312;2023-07-13T12:56:49;5.10;;;0.85;;
31728;SDS011;18309;43.658;1.312;2023-07-13T12:59:18;4.45;;;0.68;;
31728;SDS011;18309;43.658;1.312;2023-07-13T13:01:46;3.25;;;0.60;;
31728;SDS011;18309;43.658;1.312;2023-07-13T13:04:12;5.22;;;0.85;;
31728;SDS011;18309;43.658;1.312;2023-07-13T13:06:38;7.30;;;1.27;;
31728;SDS011;18309;43.658;1.312;2023-07-13T13:09:09;4.38;;;1.08;;
31728;SDS011;18309;43.658;1.312;2023-07-13T13:11:38;6.18;;;0.82;;
31728;SDS011;18309;43.658;1.312;2023-07-13T13:14:07;8.98;;;0.80;;
31728;SDS011;18309;43.658;1.312;2023-07-13T13:16:37;5.03;;;0.68;;
31728;SDS011;18309;43.658;1.312;2023-07-13T13:19:18;3.40;;;1.13;;
31728;SDS011;18309;43.658;1.312;2023-07-13T13:21:47;7.55;;;1.00;;
31728;SDS011;18309;43.658;1.312;2023-07-13T13:24:17;2.85;;;0.93;;
31728;SDS011;18309;43.658;1.312;2023-07-13T13:26:47;4.00;;;0.65;;
31728;SDS011;18309;43.658;1.312;2023-07-13T13:29:16;4.57;;;0.70;;
31728;SDS011;18309;43.658;1.312;2023-07-13T13:31:44;8.07;;;0.97;;
31728;SDS011;18309;43.658;1.312;2023-07-13T13:34:11;4.63;;;1.00;;
31728;SDS011;18309;43.658;1.312;2023-07-13T13:36:39;5.65;;;1.00;;
31728;SDS011;18309;43.658;1.312;2023-07-13T13:39:14;5.25;;;0.70;;
31728;SDS011;18309;43.658;1.312;2023-07-13T13:41:50;5.28;;;0.88;;
31728;SDS011;18309;43.658;1.312;2023-07-13T13:44:18;4.63;;;1.15;;
31728;SDS011;18309;43.658;1.312;2023-07-13T13:46:45;3.65;;;0.80;;
31728;SDS011;18309;43.658;1.312;2023-07-13T13:49:13;3.40;;;0.80;;
31728;SDS011;18309;43.658;1.312;2023-07-13T13:52:01;3.78;;;0.82;;
31728;SDS011;18309;43.658;1.312;2023-07-13T13:54:27;6.95;;;0.90;;
31728;SDS011;18309;43.658;1.312;2023-07-13T13:56:52;3.83;;;1.00;;
31728;SDS011;18309;43.658;1.312;2023-07-13T13:59:18;5.50;;;0.80;;
31728;SDS011;18309;43.658;1.312;2023-07-13T14:01:45;4.43;;;0.98;;
31728;SDS011;18309;43.658;1.312;2023-07-13T14:04:17;2.88;;;0.80;;
31728;SDS011;18309;43.658;1.312;2023-07-13T14:06:44;5.88;;;0.80;;
31728;SDS011;18309;43.658;1.312;2023-07-13T14:09:11;5.40;;;0.85;;
31728;SDS011;18309;43.658;1.312;2023-07-13T14:11:42;3.40;;;0.70;;
31728;SDS011;18309;43.658;1.312;2023-07-13T14:14:11;2.30;;;0.75;;
31728;SDS011;18309;43.658;1.312;2023-07-13T14:16:43;4.50;;;0.85;;
31728;SDS011;18309;43.658;1.312;2023-07-13T14:19:12;1.85;;;0.70;;
31728;SDS011;18309;43.658;1.312;2023-07-13T14:24:05;2.92;;;0.73;;
31728;SDS011;18309;43.658;1.312;2023-07-13T14:26:32;5.15;;;0.82;;
31728;SDS011;18309;43.658;1.312;2023-07-13T14:29:05;2.20;;;0.65;;
31728;SDS011;18309;43.658;1.312;2023-07-13T14:31:38;4.88;;;0.50;;
31728;SDS011;18309;43.658;1.312;2023-07-13T14:34:04;3.60;;;0.95;;
31728;SDS011;18309;43.658;1.312;2023-07-13T14:36:31;2.85;;;0.60;;
31728;SDS011;18309;43.658;1.312;2023-07-13T14:38:59;3.85;;;0.50;;
31728;SDS011;18309;43.658;1.312;2023-07-13T14:41:31;2.28;;;0.50;;
31728;SDS011;18309;43.658;1.312;2023-07-13T14:43:56;10.25;;;0.95;;
31728;SDS011;18309;43.658;1.312;2023-07-13T14:49:04;2.58;;;0.90;;
31728;SDS011;18309;43.658;1.312;2023-07-13T14:51:34;4.35;;;0.98;;
31728;SDS011;18309;43.658;1.312;2023-07-13T14:54:02;5.38;;;1.63;;
31728;SDS011;18309;43.658;1.312;2023-07-13T14:56:30;2.67;;;0.90;;
31728;SDS011;18309;43.658;1.312;2023-07-13T14:58:56;6.20;;;0.77;;
31728;SDS011;18309;43.658;1.312;2023-07-13T15:01:22;4.20;;;1.00;;
31728;SDS011;18309;43.658;1.312;2023-07-13T15:03:49;2.38;;;0.73;;
31728;SDS011;18309;43.658;1.312;2023-07-13T15:06:16;4.13;;;0.80;;
31728;SDS011;18309;43.658;1.312;2023-07-13T15:08:42;4.43;;;0.90;;
31728;SDS011;18309;43.658;1.312;2023-07-13T15:11:08;3.60;;;0.50;;
31728;SDS011;18309;43.658;1.312;2023-07-13T15:13:37;2.97;;;0.90;;
31728;SDS011;18309;43.658;1.312;2023-07-13T15:16:05;7.05;;;0.80;;
31728;SDS011;18309;43.658;1.312;2023-07-13T15:18:39;4.65;;;0.80;;
31728;SDS011;18309;43.658;1.312;2023-07-13T15:21:08;4.25;;;0.82;;
31728;SDS011;18309;43.658;1.312;2023-07-13T15:23:40;3.03;;;0.50;;
31728;SDS011;18309;43.658;1.312;2023-07-13T15:26:08;2.55;;;0.77;;
31728;SDS011;18309;43.658;1.312;2023-07-13T15:28:40;6.40;;;1.08;;
31728;SDS011;18309;43.658;1.312;2023-07-13T15:31:24;7.10;;;1.17;;
31728;SDS011;18309;43.658;1.312;2023-07-13T15:33:53;4.72;;;0.73;;
31728;SDS011;18309;43.658;1.312;2023-07-13T15:36:22;9.85;;;0.80;;
31728;SDS011;18309;43.658;1.312;2023-07-13T15:38:48;5.88;;;0.93;;
31728;SDS011;18309;43.658;1.312;2023-07-13T15:41:20;5.18;;;0.95;;
31728;SDS011;18309;43.658;1.312;2023-07-13T15:43:47;5.72;;;1.02;;
31728;SDS011;18309;43.658;1.312;2023-07-13T15:46:15;2.53;;;0.75;;
31728;SDS011;18309;43.658;1.312;2023-07-13T15:48:41;3.45;;;0.60;;
31728;SDS011;18309;43.658;1.312;2023-07-13T15:51:10;6.43;;;1.10;;
31728;SDS011;18309;43.658;1.312;2023-07-13T15:53:40;7.40;;;0.85;;
31728;SDS011;18309;43.658;1.312;2023-07-13T15:56:16;2.53;;;0.90;;
31728;SDS011;18309;43.658;1.312;2023-07-13T15:58:47;6.00;;;0.90;;
31728;SDS011;18309;43.658;1.312;2023-07-13T16:01:13;4.07;;;1.05;;
31728;SDS011;18309;43.658;1.312;2023-07-13T16:03:40;3.35;;;1.10;;